Maxwell Air Force Base Montgomery US
ICAO: KMXF
IATA: MXF
Category: Medium
Scheduled Services: No

Elevation: 171 ft
TransAlt. 18000 ft.

Airport Communications:
MONTGOMERY APP/DEP:121.2
ATIS:134.7
GND:127.15
PMSV METRO:34.23
42 ABW COMD POST:23.46
AFRC 908AW COMD POST:39.69
PTD:122.85
TWR:118.15

KMXF Zoom In..

Runways:

(A) RW 15 length 8013 ft width 150 ft
ILS 109.30 / hdg 149

(B) RW 33 length 8013 ft width 150 ft
---- / hdg 329

Location; KMXF
Day. 23 / Time. 21.56 Zulu
* Altimeter: 30.01
* Temperature: 29° c. 84.2°f.
* Wind from: 300° Speed 08 kn.
Dewpoint: 23° c.
Visibility: 10 Statute Miles.
Clouds: Scattered 3000 ft.
Clouds: Broken 3900 ft.

KMXF 232156Z AUTO 30008KT 10SM SCT030 BKN039 29/23 A3001 RMK AO2 LTG DSNT E SLP164 T02940231 $


Wind From 300°
Speed 08 kn.

 
 
jpsmedia.com for Web Design SOUNDCLOUD worldairports.se 2018   terms of use